Time;durP1;ratioP1;P1;durP2;ratioP2;P2;SDS_P1;SDS_P2;PMS_P1;PMS_P2;Temp;Humidity;BMP_temperature;BMP_pressure;BME280_temperature;BME280_humidity;BME280_pressure;Samples;Min_cycle;Max_cycle;Signal;HPM_P1;HPM_P2
2023/09/11 00:01:57;;;;;;;0.90;0.90;;;;;;;18.31;89.34;99818.06;5113482;28;20858;-68
2023/09/11 00:04:23;;;;;;;0.73;0.73;;;;;;;18.25;88.39;99789.03;5113413;28;20195;-68
2023/09/11 00:06:52;;;;;;;1.10;0.90;;;;;;;18.43;88.21;99813.13;5113137;28;20575;-69
2023/09/11 00:09:18;;;;;;;1.00;1.00;;;;;;;18.47;87.88;99820.66;5113128;28;20194;-68
2023/09/11 00:11:45;;;;;;;1.00;1.00;;;;;;;18.53;87.72;99814.31;5112558;28;20635;-67
2023/09/11 00:14:12;;;;;;;0.73;0.73;;;;;;;18.54;88.04;99811.63;5112829;28;20190;-68
2023/09/11 00:16:39;;;;;;;0.83;0.83;;;;;;;18.55;88.04;99808.09;5112877;28;20226;-68
2023/09/11 00:19:06;;;;;;;1.27;1.27;;;;;;;18.57;87.87;99810.63;5112587;28;20658;-68
2023/09/11 00:21:33;;;;;;;0.80;0.80;;;;;;;18.57;87.61;99811.47;5111401;28;20222;-68
2023/09/11 00:24:01;;;;;;;1.47;0.80;;;;;;;18.53;87.37;99802.16;5112508;28;20658;-68
2023/09/11 00:26:28;;;;;;;0.90;0.90;;;;;;;18.52;87.37;99800.47;5112636;28;20252;-68
2023/09/11 00:28:54;;;;;;;2.00;0.70;;;;;;;18.56;87.58;99807.19;5112920;28;20636;-68
2023/09/11 00:31:21;;;;;;;0.90;0.90;;;;;;;18.55;87.62;99797.72;5112642;28;20218;-68
2023/09/11 00:33:48;;;;;;;3.57;0.73;;;;;;;18.52;87.60;99797.03;5108707;28;20201;-68
2023/09/11 00:36:15;;;;;;;0.80;0.80;;;;;;;18.54;87.17;99811.63;5112115;28;20195;-68
2023/09/11 00:38:41;;;;;;;0.80;0.80;;;;;;;18.52;87.12;99804.84;5112690;28;20259;-68
2023/09/11 00:41:09;;;;;;;4.13;1.23;;;;;;;18.52;87.02;99808.28;5112817;28;20198;-68
2023/09/11 00:43:36;;;;;;;1.20;0.73;;;;;;;18.53;87.15;99812.56;5112300;28;20203;-68
2023/09/11 00:46:03;;;;;;;0.97;0.97;;;;;;;18.49;87.32;99810.16;5107355;28;20206;-68
2023/09/11 00:48:30;;;;;;;1.00;0.90;;;;;;;18.48;87.58;99806.72;5111917;27;20195;-67
2023/09/11 00:50:57;;;;;;;0.60;0.60;;;;;;;18.48;87.40;99808.53;5112427;28;20211;-68
2023/09/11 00:53:25;;;;;;;1.13;1.13;;;;;;;18.49;87.50;99802.38;5112463;28;20675;-68
2023/09/11 00:55:52;;;;;;;0.60;0.60;;;;;;;18.47;87.70;99802.47;5112013;28;20263;-68
2023/09/11 00:58:21;;;;;;;1.07;0.90;;;;;;;18.43;87.61;99789.75;5112122;28;20679;-68
2023/09/11 01:00:49;;;;;;;0.80;0.80;;;;;;;18.43;87.84;99798.38;5111892;28;20248;-68
2023/09/11 01:03:16;;;;;;;2.20;0.93;;;;;;;18.41;88.25;99796.78;5112191;28;20206;-68
2023/09/11 01:05:44;;;;;;;1.17;0.97;;;;;;;18.40;88.52;99795.94;5111898;28;20659;-68
2023/09/11 01:08:11;;;;;;;0.80;0.80;;;;;;;18.39;88.23;99796.88;5112120;28;20198;-68
2023/09/11 01:10:38;;;;;;;0.73;0.73;;;;;;;18.38;88.31;99786.59;5111528;28;20214;-68
2023/09/11 01:13:05;;;;;;;1.33;1.27;;;;;;;18.36;88.22;99790.09;5112072;28;20317;-68
2023/09/11 01:15:38;;;;;;;0.87;0.87;;;;;;;18.28;88.27;99768.09;5111936;28;20253;-68
2023/09/11 01:18:11;;;;;;;1.13;1.13;;;;;;;18.35;88.39;99785.00;5111110;28;20298;-68
2023/09/11 01:20:56;;;;;;;0.97;0.97;;;;;;;18.35;88.50;99790.19;5111001;28;20206;-68
2023/09/11 01:24:02;;;;;;;0.90;0.90;;;;;;;18.32;88.20;99790.34;5111878;28;20632;-68
2023/09/11 01:26:48;;;;;;;0.97;0.97;;;;;;;18.27;88.17;99787.16;5106657;28;20255;-68
2023/09/11 01:29:19;;;;;;;3.90;0.90;;;;;;;18.20;88.81;99780.63;5105366;28;20199;-68
2023/09/11 01:31:48;;;;;;;1.50;1.40;;;;;;;18.16;88.77;99773.94;5111384;28;20220;-68
2023/09/11 01:34:15;;;;;;;0.80;0.80;;;;;;;18.15;88.96;99778.31;5112416;28;20202;-69
2023/09/11 01:36:41;;;;;;;0.90;0.90;;;;;;;18.15;89.04;99777.47;5111180;28;20251;-67
2023/09/11 01:39:09;;;;;;;1.10;1.10;;;;;;;18.15;89.12;99774.88;5111445;28;20259;-67
2023/09/11 01:41:37;;;;;;;0.90;0.90;;;;;;;17.98;88.98;99749.00;5111791;28;20251;-67
2023/09/11 01:44:09;;;;;;;0.60;0.60;;;;;;;18.08;88.74;99776.97;5111108;28;20624;-68
2023/09/11 01:46:37;;;;;;;0.70;0.70;;;;;;;18.08;89.00;99781.31;5111857;28;20616;-68
2023/09/11 01:49:05;;;;;;;0.70;0.70;;;;;;;18.06;88.95;99772.78;5111007;28;20247;-68
2023/09/11 01:51:33;;;;;;;3.00;0.70;;;;;;;18.03;89.35;99778.16;5111271;28;20310;-68
2023/09/11 01:54:00;;;;;;;0.70;0.70;;;;;;;18.02;89.93;99772.13;5111029;28;20251;-68
2023/09/11 01:56:27;;;;;;;1.93;1.00;;;;;;;17.98;90.07;99769.78;5111539;28;20252;-68
2023/09/11 01:58:56;;;;;;;1.33;1.27;;;;;;;17.94;90.49;99770.84;5110425;28;20278;-67
2023/09/11 02:01:23;;;;;;;1.17;1.00;;;;;;;17.92;90.46;99770.09;5109110;28;20202;-68
2023/09/11 02:03:51;;;;;;;3.57;1.07;;;;;;;17.88;90.17;99768.59;5110982;28;20190;-67
2023/09/11 02:06:18;;;;;;;1.07;1.07;;;;;;;17.81;90.39;99757.72;5110707;28;20346;-67
2023/09/11 02:08:44;;;;;;;1.13;1.10;;;;;;;17.78;90.69;99768.25;5111235;28;20190;-68
2023/09/11 02:11:11;;;;;;;2.73;0.97;;;;;;;17.72;91.04;99766.84;5110564;28;20681;-68
2023/09/11 02:13:39;;;;;;;1.50;1.50;;;;;;;17.61;91.13;99743.22;5111164;28;20286;-68
2023/09/11 02:16:05;;;;;;;2.30;1.10;;;;;;;17.58;91.47;99751.16;5110938;28;20679;-67
2023/09/11 02:18:32;;;;;;;1.20;1.20;;;;;;;17.64;91.62;99760.38;5110896;28;20190;-68
2023/09/11 02:21:00;;;;;;;1.50;1.40;;;;;;;17.60;91.92;99759.72;5111044;28;20194;-68
2023/09/11 02:23:27;;;;;;;4.23;1.03;;;;;;;17.56;92.82;99753.00;5110617;28;20199;-68
2023/09/11 02:25:53;;;;;;;1.10;1.10;;;;;;;17.50;92.85;99758.50;5110910;28;20321;-68
2023/09/11 02:28:20;;;;;;;0.97;0.97;;;;;;;17.44;93.30;99756.22;5111075;28;20671;-68
2023/09/11 02:30:47;;;;;;;0.90;0.90;;;;;;;17.39;93.74;99750.44;5112746;28;20203;-67
2023/09/11 02:33:14;;;;;;;0.90;0.90;;;;;;;17.34;93.67;99747.25;5112639;28;20198;-67
2023/09/11 02:35:40;;;;;;;0.93;0.93;;;;;;;17.28;94.01;99748.41;5114841;28;20195;-67
2023/09/11 02:38:08;;;;;;;0.77;0.77;;;;;;;17.21;94.52;99746.22;5115133;28;20255;-68
2023/09/11 02:40:36;;;;;;;1.47;1.47;;;;;;;17.14;94.75;99756.06;5114540;28;20222;-68
2023/09/11 02:43:03;;;;;;;1.20;1.20;;;;;;;17.10;95.14;99749.34;5115242;28;20307;-68
2023/09/11 02:45:30;;;;;;;0.70;0.70;;;;;;;17.09;95.41;99741.66;5114739;28;20578;-68
2023/09/11 02:47:56;;;;;;;0.70;0.70;;;;;;;17.05;95.36;99734.97;5114622;28;20244;-67
2023/09/11 02:50:23;;;;;;;0.97;0.97;;;;;;;17.03;95.87;99734.19;5114252;28;20624;-68
2023/09/11 02:52:50;;;;;;;0.50;0.50;;;;;;;17.04;95.96;99739.31;5114772;28;20325;-68
2023/09/11 02:55:18;;;;;;;0.80;0.80;;;;;;;16.97;96.12;99729.31;5114996;28;20261;-67
2023/09/11 02:57:45;;;;;;;1.20;1.07;;;;;;;16.92;96.48;99714.03;5114443;28;20211;-67
2023/09/11 03:00:12;;;;;;;3.73;0.87;;;;;;;17.03;96.06;99734.19;5114447;28;20195;-68
2023/09/11 03:02:39;;;;;;;1.00;1.00;;;;;;;17.02;96.00;99735.13;5114085;28;20667;-68
2023/09/11 03:05:07;;;;;;;0.80;0.80;;;;;;;16.96;96.42;99732.84;5114637;28;20202;-68
2023/09/11 03:07:33;;;;;;;0.60;0.60;;;;;;;16.96;96.52;99730.25;5114014;28;20202;-68
2023/09/11 03:10:00;;;;;;;0.87;0.87;;;;;;;16.97;96.58;99731.91;5114575;28;20536;-68
2023/09/11 03:12:30;;;;;;;0.70;0.70;;;;;;;16.96;96.20;99727.66;5113845;28;20226;-67
2023/09/11 03:15:03;;;;;;;1.10;1.10;;;;;;;16.96;96.17;99728.50;5114177;28;20203;-68
2023/09/11 03:17:30;;;;;;;0.90;0.90;;;;;;;16.97;96.04;99729.31;5114346;28;20209;-67
2023/09/11 03:19:57;;;;;;;0.80;0.80;;;;;;;16.86;96.30;99719.53;5112861;28;20198;-67
2023/09/11 03:22:24;;;;;;;0.70;0.70;;;;;;;16.97;96.25;99731.91;5109579;28;20198;-67
2023/09/11 03:24:51;;;;;;;2.33;1.27;;;;;;;16.93;95.90;99722.66;5112908;28;20198;-67
2023/09/11 03:27:18;;;;;;;1.17;1.17;;;;;;;16.89;95.85;99734.06;5114251;28;20207;-67
2023/09/11 03:29:46;;;;;;;1.27;1.27;;;;;;;16.77;96.08;99736.34;5113136;28;20198;-67
2023/09/11 03:32:12;;;;;;;0.90;0.90;;;;;;;16.70;96.67;99734.97;5113973;28;20210;-68
2023/09/11 03:34:39;;;;;;;1.07;0.80;;;;;;;16.65;97.09;99736.97;5114112;28;20258;-67
2023/09/11 03:37:06;;;;;;;1.13;1.13;;;;;;;16.63;97.05;99738.81;5114000;28;20206;-67
2023/09/11 03:39:32;;;;;;;0.70;0.70;;;;;;;16.62;97.08;99737.13;5113961;28;20202;-67
2023/09/11 03:41:59;;;;;;;0.80;0.80;;;;;;;16.62;96.83;99731.94;5112506;28;20200;-68
2023/09/11 03:44:26;;;;;;;1.10;1.00;;;;;;;16.62;96.90;99736.28;5113959;28;20583;-67
2023/09/11 03:46:54;;;;;;;1.17;1.17;;;;;;;16.61;96.98;99727.66;5113496;28;20203;-67
2023/09/11 03:49:21;;;;;;;1.27;1.27;;;;;;;16.61;96.86;99732.84;5113666;27;20202;-67
2023/09/11 03:51:47;;;;;;;1.10;1.10;;;;;;;16.59;97.04;99737.28;5112426;27;20778;-67
2023/09/11 03:54:14;;;;;;;1.23;1.23;;;;;;;16.59;96.92;99732.09;5113719;28;20636;-68
2023/09/11 03:56:41;;;;;;;1.07;1.07;;;;;;;16.57;97.03;99728.75;5113544;28;20206;-67
2023/09/11 03:59:07;;;;;;;2.30;0.97;;;;;;;16.56;97.24;99732.25;5113057;28;20201;-67
2023/09/11 04:01:34;;;;;;;1.20;1.20;;;;;;;16.54;97.28;99740.97;5113608;28;20289;-67
2023/09/11 04:04:02;;;;;;;1.00;1.00;;;;;;;16.48;97.72;99739.50;5113373;28;20233;-67
2023/09/11 04:06:29;;;;;;;3.43;1.30;;;;;;;16.49;98.16;99736.00;5113353;28;20256;-67
2023/09/11 04:08:56;;;;;;;3.53;1.00;;;;;;;16.50;98.47;99736.84;5110743;28;20606;-67
2023/09/11 04:11:23;;;;;;;1.17;1.17;;;;;;;16.50;98.14;99737.69;5112488;28;20266;-67
2023/09/11 04:13:50;;;;;;;3.20;1.13;;;;;;;16.53;98.36;99747.06;5112292;28;20316;-67
2023/09/11 04:16:17;;;;;;;1.07;1.07;;;;;;;16.56;98.70;99736.56;5110017;28;20666;-67
2023/09/11 04:18:44;;;;;;;1.63;1.63;;;;;;;16.57;98.48;99733.94;5110137;28;20255;-67
2023/09/11 04:21:11;;;;;;;1.57;1.57;;;;;;;16.57;98.47;99746.88;5112229;28;20251;-67
2023/09/11 04:23:37;;;;;;;0.83;0.83;;;;;;;16.58;98.90;99745.94;5112735;28;20187;-67
2023/09/11 04:26:06;;;;;;;1.23;1.23;;;;;;;16.55;99.12;99746.09;5109954;28;20625;-68
2023/09/11 04:28:33;;;;;;;1.20;1.20;;;;;;;16.48;99.49;99734.31;5112672;28;20227;-67
2023/09/11 04:31:00;;;;;;;1.30;1.30;;;;;;;16.56;100.00;99736.56;5112761;28;20203;-68
2023/09/11 04:33:27;;;;;;;1.17;1.17;;;;;;;16.62;100.00;99742.28;5112535;28;20264;-67
2023/09/11 04:35:54;;;;;;;1.10;1.10;;;;;;;16.69;100.00;99740.25;5112534;28;20195;-68
2023/09/11 04:38:22;;;;;;;1.00;1.00;;;;;;;16.71;100.00;99752.19;5112286;28;20202;-68
2023/09/11 04:40:49;;;;;;;1.30;1.30;;;;;;;16.83;99.08;99755.09;5112874;28;20670;-68
2023/09/11 04:43:15;;;;;;;3.47;1.27;;;;;;;16.92;98.84;99754.63;5112606;28;20195;-67
2023/09/11 04:45:42;;;;;;;1.13;1.13;;;;;;;17.02;98.23;99750.66;5106258;28;20198;-68
2023/09/11 04:48:09;;;;;;;1.00;1.00;;;;;;;17.15;97.92;99751.72;5112009;28;20207;-68
2023/09/11 04:50:36;;;;;;;1.27;1.27;;;;;;;17.27;97.86;99753.66;5112362;28;20256;-67
2023/09/11 04:53:02;;;;;;;1.10;1.10;;;;;;;17.41;97.55;99758.13;5112502;28;20210;-68
2023/09/11 04:55:30;;;;;;;1.17;1.17;;;;;;;17.55;96.69;99746.13;5110971;28;20203;-67
2023/09/11 04:57:57;;;;;;;2.00;1.57;;;;;;;17.63;96.46;99745.75;5112251;28;20194;-67
2023/09/11 05:00:26;;;;;;;2.47;1.20;;;;;;;17.86;96.17;99767.84;5111988;28;20195;-68
2023/09/11 05:02:52;;;;;;;1.20;1.20;;;;;;;18.00;94.86;99758.38;5112278;28;20286;-68
2023/09/11 05:05:18;;;;;;;1.20;1.20;;;;;;;18.06;94.17;99763.22;5111856;28;20250;-67
2023/09/11 05:07:45;;;;;;;1.13;1.13;;;;;;;18.15;93.67;99734.22;5111804;28;20378;-68
2023/09/11 05:10:14;;;;;;;1.07;1.07;;;;;;;18.40;92.96;99757.00;5112292;28;20663;-67
2023/09/11 05:12:42;;;;;;;1.30;1.30;;;;;;;18.57;92.61;99749.16;5111078;28;20322;-68
2023/09/11 05:15:10;;;;;;;3.30;1.33;;;;;;;18.74;91.33;99759.38;5111823;28;20670;-68
2023/09/11 05:17:36;;;;;;;1.20;1.20;;;;;;;18.81;90.25;99760.69;5111493;28;20670;-69
2023/09/11 05:20:06;;;;;;;1.10;1.10;;;;;;;18.97;89.65;99765.84;5108867;28;20202;-68
2023/09/11 05:22:33;;;;;;;1.20;1.20;;;;;;;19.05;89.31;99749.81;5106614;28;20650;-68
2023/09/11 05:25:01;;;;;;;1.40;1.30;;;;;;;19.36;88.49;99765.22;5107048;28;20195;-68
2023/09/11 05:27:28;;;;;;;1.07;1.07;;;;;;;19.45;87.05;99763.91;5110052;28;20237;-68
2023/09/11 05:29:56;;;;;;;1.10;1.10;;;;;;;19.64;85.88;99765.28;5105810;28;20200;-67
2023/09/11 05:32:25;;;;;;;1.70;1.60;;;;;;;19.89;85.98;99762.81;5105436;28;20707;-67
2023/09/11 05:34:51;;;;;;;2.87;1.07;;;;;;;20.18;85.82;99760.97;5107936;28;20631;-68
2023/09/11 05:37:18;;;;;;;0.83;0.83;;;;;;;20.44;83.37;99751.53;5108916;28;20644;-66
2023/09/11 05:39:45;;;;;;;0.90;0.90;;;;;;;20.55;83.31;99738.63;5108062;28;20249;-63
2023/09/11 05:42:11;;;;;;;1.07;1.07;;;;;;;20.82;82.89;99755.06;5108268;28;20205;-63
2023/09/11 05:44:38;;;;;;;1.00;1.00;;;;;;;21.14;80.95;99752.91;5108254;28;20208;-63
2023/09/11 05:47:07;;;;;;;4.67;0.80;;;;;;;21.38;78.84;99760.84;5109111;28;20209;-63
2023/09/11 05:49:34;;;;;;;0.73;0.73;;;;;;;21.48;76.68;99750.63;5109350;28;20205;-70
2023/09/11 05:52:00;;;;;;;0.80;0.80;;;;;;;21.66;76.35;99765.81;5108010;28;20210;-69
2023/09/11 05:54:29;;;;;;;0.77;0.70;;;;;;;21.72;77.08;99765.38;5109418;28;20266;-69
2023/09/11 05:56:55;;;;;;;1.00;1.00;;;;;;;21.93;76.76;99763.09;5108841;28;20733;-69
2023/09/11 05:59:22;;;;;;;0.80;0.80;;;;;;;22.15;75.43;99762.38;5108788;28;20206;-69
2023/09/11 06:01:49;;;;;;;0.90;0.90;;;;;;;22.30;73.08;99761.25;5109672;28;20202;-69
2023/09/11 06:04:17;;;;;;;0.90;0.90;;;;;;;22.48;72.21;99749.47;5109080;28;20206;-70
2023/09/11 06:06:44;;;;;;;0.80;0.80;;;;;;;22.64;69.65;99760.47;5107875;28;20221;-70
2023/09/11 06:09:10;;;;;;;2.00;0.87;;;;;;;22.75;70.84;99757.91;5108062;28;20547;-69
2023/09/11 06:11:37;;;;;;;1.30;1.17;;;;;;;22.91;68.49;99770.66;5109093;28;20210;-70
2023/09/11 06:14:06;;;;;;;2.97;1.00;;;;;;;22.95;68.33;99759.88;5108268;28;20227;-70
2023/09/11 06:16:33;;;;;;;0.70;0.70;;;;;;;23.21;67.59;99762.28;5107907;28;20629;-70
2023/09/11 06:19:00;;;;;;;1.17;1.13;;;;;;;23.41;67.27;99761.63;5108166;28;20248;-69
2023/09/11 06:21:28;;;;;;;0.70;0.70;;;;;;;23.57;67.02;99767.34;5109192;28;20248;-69
2023/09/11 06:23:55;;;;;;;0.97;0.97;;;;;;;23.75;65.86;99760.66;5110204;28;20248;-70
2023/09/11 06:26:22;;;;;;;0.70;0.70;;;;;;;23.85;68.11;99766.00;5109509;28;20211;-69
2023/09/11 06:28:50;;;;;;;0.70;0.70;;;;;;;23.78;65.89;99772.69;5108729;28;20608;-70
2023/09/11 06:31:17;;;;;;;0.77;0.77;;;;;;;23.90;65.47;99769.94;5108743;28;20207;-69
2023/09/11 06:33:44;;;;;;;0.90;0.90;;;;;;;24.12;67.87;99768.25;5107968;28;20683;-70
2023/09/11 06:36:11;;;;;;;0.77;0.77;;;;;;;24.08;64.69;99772.88;5109975;28;20271;-71
2023/09/11 06:38:39;;;;;;;0.87;0.87;;;;;;;24.19;66.55;99766.81;5108695;28;20211;-70
2023/09/11 06:41:05;;;;;;;0.70;0.70;;;;;;;24.34;63.04;99762.94;5108407;28;20659;-71
2023/09/11 06:43:32;;;;;;;0.80;0.80;;;;;;;24.42;63.81;99766.63;5108735;28;20662;-70
2023/09/11 06:45:59;;;;;;;2.10;0.80;;;;;;;24.50;62.62;99771.22;5104594;28;20252;-69
2023/09/11 06:48:26;;;;;;;1.43;0.80;;;;;;;24.57;62.83;99767.16;5109244;28;20258;-69
2023/09/11 06:50:53;;;;;;;0.70;0.70;;;;;;;24.64;63.23;99764.84;5108994;28;20203;-71
2023/09/11 06:53:20;;;;;;;0.70;0.70;;;;;;;24.63;62.84;99732.56;5108578;28;20720;-70
2023/09/11 06:55:49;;;;;;;3.77;1.30;;;;;;;24.86;63.05;99764.78;5108858;28;20574;-70
2023/09/11 06:58:16;;;;;;;0.70;0.70;;;;;;;24.81;61.15;99762.50;5108242;28;20564;-70
2023/09/11 07:00:42;;;;;;;1.23;0.87;;;;;;;24.94;62.03;99765.78;5108996;28;20202;-70
2023/09/11 07:03:09;;;;;;;0.90;0.90;;;;;;;24.96;61.40;99768.28;5108792;28;20199;-70
2023/09/11 07:05:37;;;;;;;0.70;0.70;;;;;;;24.95;61.52;99764.00;5106428;28;20256;-71
2023/09/11 07:08:04;;;;;;;0.80;0.80;;;;;;;25.06;61.13;99762.16;5105417;28;20199;-69
2023/09/11 07:10:31;;;;;;;0.70;0.70;;;;;;;25.10;62.75;99759.28;5109012;28;20199;-70
2023/09/11 07:12:59;;;;;;;2.20;0.90;;;;;;;25.14;59.64;99763.31;5105561;28;20275;-70
2023/09/11 07:15:26;;;;;;;1.87;0.90;;;;;;;25.23;59.35;99758.09;5107284;28;20198;-70
2023/09/11 07:17:53;;;;;;;0.70;0.70;;;;;;;25.35;60.22;99761.47;5110177;28;20195;-71
2023/09/11 07:20:21;;;;;;;0.70;0.60;;;;;;;25.51;57.61;99757.44;5112704;28;20199;-71
2023/09/11 07:22:48;;;;;;;0.60;0.60;;;;;;;25.69;56.57;99757.63;5103803;28;20193;-71
2023/09/11 07:25:17;;;;;;;0.70;0.70;;;;;;;25.80;58.75;99757.53;5107254;28;20678;-71
2023/09/11 07:27:44;;;;;;;1.00;1.00;;;;;;;25.89;55.23;99767.22;5109529;27;20705;-70
2023/09/11 07:30:12;;;;;;;1.07;0.93;;;;;;;26.08;59.44;99761.19;5111139;28;20266;-71
2023/09/11 07:32:39;;;;;;;0.93;0.80;;;;;;;26.10;54.70;99743.50;5111244;28;20226;-72
2023/09/11 07:35:07;;;;;;;0.70;0.70;;;;;;;26.28;54.93;99762.06;5112773;28;20202;-71
2023/09/11 07:37:34;;;;;;;0.70;0.70;;;;;;;26.47;53.44;99765.53;5111313;28;20209;-71
2023/09/11 07:40:00;;;;;;;0.60;0.60;;;;;;;26.44;52.55;99767.63;5110680;28;20198;-71
2023/09/11 07:42:27;;;;;;;1.13;0.63;;;;;;;26.53;53.81;99766.78;5111569;28;20267;-71
2023/09/11 07:44:54;;;;;;;0.70;0.70;;;;;;;26.44;53.17;99762.34;5109523;28;20263;-71
2023/09/11 07:47:22;;;;;;;0.90;0.90;;;;;;;26.34;55.69;99767.63;5111188;28;20229;-71
2023/09/11 07:49:49;;;;;;;2.00;0.90;;;;;;;26.45;54.80;99758.78;5109968;28;20279;-71
2023/09/11 07:52:15;;;;;;;0.50;0.50;;;;;;;26.42;54.27;99746.75;5107773;28;20214;-71
2023/09/11 07:54:43;;;;;;;0.67;0.67;;;;;;;26.63;55.24;99751.84;5110644;28;20222;-71
2023/09/11 07:57:09;;;;;;;1.60;0.90;;;;;;;26.83;53.00;99756.16;5111724;28;20650;-71
2023/09/11 07:59:36;;;;;;;0.93;0.90;;;;;;;26.93;51.23;99753.50;5112145;28;20214;-71
2023/09/11 08:02:03;;;;;;;0.60;0.60;;;;;;;27.05;52.40;99753.19;5112513;28;20247;-71
2023/09/11 08:04:32;;;;;;;0.83;0.83;;;;;;;27.08;50.58;99752.91;5110439;28;20256;-72
2023/09/11 08:06:59;;;;;;;1.70;0.67;;;;;;;27.16;52.91;99749.56;5110085;28;20195;-72
2023/09/11 08:09:26;;;;;;;0.93;0.80;;;;;;;27.25;54.08;99748.69;5112087;28;20207;-71
2023/09/11 08:11:53;;;;;;;0.87;0.87;;;;;;;27.35;49.84;99749.50;5112401;28;20207;-71
2023/09/11 08:14:21;;;;;;;0.90;0.90;;;;;;;27.09;51.02;99748.47;5113147;28;20279;-72
2023/09/11 08:16:47;;;;;;;0.67;0.67;;;;;;;27.22;50.74;99737.63;5112038;28;20217;-71
2023/09/11 08:19:14;;;;;;;0.93;0.93;;;;;;;27.27;50.63;99745.94;5110157;28;20198;-71
2023/09/11 08:21:42;;;;;;;0.57;0.57;;;;;;;27.44;49.27;99748.66;5108425;28;20199;-70
2023/09/11 08:24:09;;;;;;;0.70;0.70;;;;;;;27.65;46.06;99740.53;5111550;28;20199;-71
2023/09/11 08:26:37;;;;;;;0.50;0.50;;;;;;;27.73;46.39;99727.44;5112074;28;20627;-71
2023/09/11 08:29:04;;;;;;;1.40;0.70;;;;;;;27.91;46.57;99735.41;5109653;28;20882;-72
2023/09/11 08:31:32;;;;;;;0.60;0.60;;;;;;;27.92;45.85;99731.78;5109802;28;20199;-71
2023/09/11 08:33:59;;;;;;;0.60;0.60;;;;;;;27.82;45.36;99731.81;5110532;28;20663;-71
2023/09/11 08:36:26;;;;;;;0.60;0.60;;;;;;;27.93;43.60;99734.28;5109875;28;20199;-71
2023/09/11 08:38:54;;;;;;;0.57;0.57;;;;;;;28.17;44.29;99739.81;5110225;28;20247;-70
2023/09/11 08:41:23;;;;;;;0.40;0.40;;;;;;;28.34;45.23;99732.06;5109990;27;20203;-70
2023/09/11 08:43:51;;;;;;;0.50;0.50;;;;;;;28.30;41.25;99728.09;5110715;28;20199;-70
2023/09/11 08:46:18;;;;;;;0.50;0.50;;;;;;;28.23;40.80;99724.38;5110711;28;20233;-70
2023/09/11 08:48:47;;;;;;;0.60;0.60;;;;;;;28.26;39.39;99721.44;5110771;28;20202;-71
2023/09/11 08:51:22;;;;;;;0.47;0.47;;;;;;;28.19;40.20;99721.22;5107076;28;20271;-72
2023/09/11 08:53:52;;;;;;;0.70;0.70;;;;;;;28.25;41.36;99717.97;5107606;28;20616;-72
2023/09/11 08:56:20;;;;;;;0.63;0.63;;;;;;;28.35;40.68;99712.63;5110463;28;20293;-73
2023/09/11 08:58:51;;;;;;;0.70;0.70;;;;;;;28.17;42.19;99714.44;5110392;28;20256;-74
2023/09/11 09:01:19;;;;;;;0.60;0.60;;;;;;;28.29;40.95;99718.50;5110390;28;20203;-72
2023/09/11 09:03:46;;;;;;;0.50;0.50;;;;;;;28.21;40.42;99716.59;5107795;28;20202;-72
2023/09/11 09:06:13;;;;;;;0.40;0.40;;;;;;;28.12;39.01;99718.34;5108731;28;20248;-71
2023/09/11 09:08:41;;;;;;;0.70;0.70;;;;;;;27.94;38.11;99709.59;5110803;28;20206;-72
2023/09/11 09:11:08;;;;;;;1.40;0.60;;;;;;;28.14;38.75;99705.84;5110490;28;20319;-71
2023/09/11 09:13:36;;;;;;;0.50;0.50;;;;;;;28.20;38.40;99709.69;5110739;28;20655;-72
2023/09/11 09:16:03;;;;;;;0.53;0.53;;;;;;;28.12;37.22;99707.81;5109916;28;20199;-72
2023/09/11 09:18:30;;;;;;;0.60;0.60;;;;;;;28.31;37.53;99701.53;5110538;28;20252;-72
2023/09/11 09:20:57;;;;;;;0.60;0.60;;;;;;;28.39;37.64;99699.00;5110348;28;20210;-72
2023/09/11 09:23:33;;;;;;;0.50;0.50;;;;;;;28.66;40.07;99700.69;5108388;28;20248;-72
2023/09/11 09:26:06;;;;;;;0.50;0.50;;;;;;;28.51;35.41;99694.28;5106347;28;20198;-72
2023/09/11 09:28:33;;;;;;;0.70;0.60;;;;;;;28.50;36.92;99690.00;5107645;28;20206;-72
2023/09/11 09:31:02;;;;;;;0.60;0.60;;;;;;;28.54;36.91;99694.81;5109267;28;20666;-72
2023/09/11 09:33:30;;;;;;;0.50;0.50;;;;;;;28.80;38.92;99686.94;5108989;28;20218;-71
2023/09/11 09:35:57;;;;;;;0.53;0.53;;;;;;;28.90;36.91;99690.31;5109314;28;20252;-71
2023/09/11 09:38:26;;;;;;;0.60;0.53;;;;;;;29.06;37.13;99687.78;5110016;28;20195;-70
2023/09/11 09:40:54;;;;;;;0.50;0.50;;;;;;;29.14;38.37;99682.50;5109183;28;20675;-72
2023/09/11 09:43:22;;;;;;;1.57;0.57;;;;;;;28.94;36.25;99680.28;5110175;28;20686;-72
2023/09/11 09:45:49;;;;;;;0.50;0.50;;;;;;;28.39;36.15;99671.78;5110397;28;20234;-72
2023/09/11 09:48:18;;;;;;;0.50;0.50;;;;;;;28.34;38.55;99674.03;5109531;28;20207;-71
2023/09/11 09:50:51;;;;;;;0.40;0.40;;;;;;;28.33;37.26;99667.97;5110083;28;20297;-71
2023/09/11 09:53:22;;;;;;;0.60;0.60;;;;;;;28.53;37.59;99666.78;5108126;28;20199;-71
2023/09/11 09:55:49;;;;;;;0.57;0.57;;;;;;;28.72;42.21;99663.16;5107167;28;20198;-71
2023/09/11 09:58:16;;;;;;;0.60;0.60;;;;;;;28.78;37.36;99667.81;5107617;28;20283;-71
2023/09/11 10:00:43;;;;;;;0.60;0.60;;;;;;;28.69;35.70;99674.03;5109421;28;20234;-71
2023/09/11 10:03:11;;;;;;;0.50;0.50;;;;;;;28.54;35.44;99651.78;5109303;28;20198;-71
2023/09/11 10:05:41;;;;;;;0.40;0.40;;;;;;;28.57;35.14;99657.56;5104028;28;20244;-71
2023/09/11 10:08:08;;;;;;;0.57;0.57;;;;;;;28.78;38.12;99651.97;5109533;28;20675;-72
2023/09/11 10:10:35;;;;;;;0.57;0.57;;;;;;;28.89;36.88;99654.34;5109893;28;20218;-72
2023/09/11 10:13:06;;;;;;;0.50;0.50;;;;;;;29.01;35.15;99647.81;5110205;28;20726;-72
2023/09/11 10:15:34;;;;;;;0.40;0.40;;;;;;;29.05;36.58;99654.44;5110203;28;20214;-72
2023/09/11 10:18:02;;;;;;;0.57;0.57;;;;;;;28.99;36.04;99649.78;5110304;28;20211;-71
2023/09/11 10:20:30;;;;;;;0.70;0.70;;;;;;;29.11;35.97;99645.88;5110203;28;20209;-71
2023/09/11 10:22:59;;;;;;;0.70;0.70;;;;;;;29.18;39.77;99638.97;5109854;28;20202;-72
2023/09/11 10:25:29;;;;;;;0.60;0.60;;;;;;;29.14;35.52;99626.25;5110077;28;20195;-72
2023/09/11 10:27:59;;;;;;;0.50;0.50;;;;;;;29.07;35.34;99636.63;5110001;28;20256;-72
2023/09/11 10:30:27;;;;;;;0.70;0.70;;;;;;;28.94;36.09;99636.22;5110525;28;20259;-75
2023/09/11 10:33:00;;;;;;;0.47;0.47;;;;;;;28.68;35.39;99622.22;5110506;28;20647;-74
2023/09/11 10:35:30;;;;;;;0.83;0.70;;;;;;;28.52;35.17;99619.47;5110694;28;20291;-73
2023/09/11 10:37:59;;;;;;;0.90;0.90;;;;;;;28.68;36.09;99622.22;5110155;28;20255;-71
2023/09/11 10:40:30;;;;;;;0.77;0.77;;;;;;;28.83;36.80;99614.56;5108175;28;20206;-71
2023/09/11 10:42:56;;;;;;;0.60;0.60;;;;;;;28.84;36.11;99611.78;5108274;28;20198;-71
2023/09/11 10:45:27;;;;;;;0.90;0.70;;;;;;;28.90;35.20;99613.78;5109402;28;20199;-73
2023/09/11 10:47:54;;;;;;;1.77;0.60;;;;;;;29.04;36.04;99625.56;5108688;28;20258;-71
2023/09/11 10:50:24;;;;;;;0.60;0.60;;;;;;;29.16;34.80;99625.13;5109362;28;20267;-73
2023/09/11 10:52:53;;;;;;;0.60;0.60;;;;;;;29.14;37.35;99613.88;5110843;28;20206;-71
2023/09/11 10:55:24;;;;;;;0.60;0.60;;;;;;;29.23;36.84;99609.47;5111046;28;20249;-72
2023/09/11 10:57:52;;;;;;;0.65;0.65;;;;;;;29.43;37.28;99616.16;5113227;28;20202;-71
2023/09/11 11:00:21;;;;;;;2.30;0.73;;;;;;;29.45;35.82;99610.69;5112280;28;20666;-71
2023/09/11 11:02:48;;;;;;;0.52;0.52;;;;;;;29.23;35.13;99604.19;5112890;28;20260;-72
2023/09/11 11:05:15;;;;;;;0.50;0.50;;;;;;;29.25;35.36;99601.38;5112033;27;20203;-71
2023/09/11 11:07:42;;;;;;;0.50;0.50;;;;;;;29.33;41.68;99604.06;5109193;28;20207;-72
2023/09/11 11:10:12;;;;;;;0.67;0.67;;;;;;;29.19;35.11;99587.81;5112190;28;20210;-72
2023/09/11 11:12:42;;;;;;;0.43;0.43;;;;;;;29.31;36.30;99604.22;5110397;28;20309;-71
2023/09/11 11:15:27;;;;;;;7.78;0.85;;;;;;;29.48;35.79;99597.16;5111133;28;20218;-71
2023/09/11 11:18:08;;;;;;;0.57;0.57;;;;;;;29.30;35.08;99585.91;5113241;28;20251;-71
2023/09/11 11:20:35;;;;;;;4.40;0.80;;;;;;;29.35;35.43;99594.16;5111947;28;20202;-71
2023/09/11 11:23:10;;;;;;;2.20;0.60;;;;;;;29.35;39.60;99589.72;5112982;27;20199;-71
2023/09/11 11:25:37;;;;;;;1.33;0.50;;;;;;;29.39;35.29;99587.56;5112588;28;21400;-71
2023/09/11 11:28:15;;;;;;;0.90;0.70;;;;;;;29.48;34.01;99581.31;5112572;28;20194;-72
2023/09/11 11:30:44;;;;;;;0.50;0.50;;;;;;;29.28;34.48;99577.31;5111687;28;20207;-74
2023/09/11 11:33:15;;;;;;;0.50;0.50;;;;;;;29.23;34.87;99574.31;5112774;28;20210;-75
2023/09/11 11:35:45;;;;;;;0.63;0.63;;;;;;;29.24;36.34;99568.03;5112159;28;20231;-72
2023/09/11 11:38:15;;;;;;;0.50;0.50;;;;;;;29.42;36.13;99571.41;5111287;28;20344;-71